Time;durP1;ratioP1;P1;durP2;ratioP2;P2;SDS_P1;SDS_P2;PMS_P1;PMS_P2;Temp;Humidity;BMP_temperature;BMP_pressure;BME280_temperature;BME280_humidity;BME280_pressure;Samples;Min_cycle;Max_cycle;Signal;HPM_P1;HPM_P2
2024/02/01 00:00:05;;;;;;;9.77;7.10;;;;;;;2.54;66.86;101896.84;4915304;28;20514;-69
2024/02/01 00:02:35;;;;;;;8.95;5.32;;;;;;;2.53;67.29;101899.38;4913352;28;21066;-67
2024/02/01 00:05:04;;;;;;;10.77;5.95;;;;;;;2.71;66.49;101896.13;4919896;28;20036;-74
2024/02/01 00:07:31;;;;;;;9.15;5.72;;;;;;;2.94;65.96;101888.59;4912926;28;20882;-73
2024/02/01 00:09:57;;;;;;;12.60;5.63;;;;;;;2.74;66.48;101880.66;4906970;28;20039;-72
2024/02/01 00:12:22;;;;;;;8.85;5.75;;;;;;;2.50;67.43;101881.31;4913493;28;20150;-71
2024/02/01 00:14:48;;;;;;;9.95;5.70;;;;;;;2.76;66.86;101882.41;4911784;28;20046;-65
2024/02/01 00:17:13;;;;;;;8.82;5.28;;;;;;;3.23;65.53;101898.28;4913322;28;20605;-67
2024/02/01 00:19:39;;;;;;;10.15;6.15;;;;;;;2.98;66.11;101896.38;4919654;28;20047;-68
2024/02/01 00:22:07;;;;;;;12.52;6.20;;;;;;;2.52;68.41;101901.09;4915283;28;20118;-68
2024/02/01 00:24:35;;;;;;;11.48;5.07;;;;;;;3.24;65.80;101910.34;4928171;28;20035;-70
2024/02/01 00:27:02;;;;;;;8.18;5.95;;;;;;;3.36;65.33;101902.72;4883107;28;20055;-70
2024/02/01 00:29:31;;;;;;;9.10;4.97;;;;;;;3.05;66.75;101912.78;4882665;28;20058;-70
2024/02/01 00:31:59;;;;;;;7.70;4.85;;;;;;;3.28;67.13;101912.94;4897115;28;20039;-70
2024/02/01 00:34:24;;;;;;;8.65;4.60;;;;;;;3.07;67.74;101903.31;4909579;28;20062;-69
2024/02/01 00:36:50;;;;;;;6.63;4.80;;;;;;;3.18;67.54;101918.91;4890322;28;20094;-68
2024/02/01 00:39:18;;;;;;;8.38;4.63;;;;;;;2.99;68.40;101910.16;4924199;28;20055;-68
2024/02/01 00:41:46;;;;;;;10.57;4.55;;;;;;;3.19;68.05;101908.56;4918990;28;20031;-68
2024/02/01 00:44:11;;;;;;;10.32;4.15;;;;;;;3.43;67.40;101913.97;4932828;28;20107;-68
2024/02/01 00:46:39;;;;;;;6.97;3.75;;;;;;;3.50;67.02;101911.41;4910824;28;20071;-68
2024/02/01 00:49:07;;;;;;;6.55;4.10;;;;;;;3.14;68.87;101914.56;4930980;28;20039;-68
2024/02/01 00:51:32;;;;;;;10.70;4.43;;;;;;;3.50;67.63;101916.56;4908965;28;20086;-67
2024/02/01 00:53:58;;;;;;;6.30;3.38;;;;;;;3.83;66.32;101912.44;4926903;28;20031;-68
2024/02/01 00:56:25;;;;;;;7.80;3.95;;;;;;;3.72;66.71;101927.06;4903668;28;20222;-70
2024/02/01 00:58:53;;;;;;;9.27;3.65;;;;;;;3.96;66.42;101909.06;4894692;28;20261;-70
2024/02/01 01:01:19;;;;;;;7.85;3.63;;;;;;;3.79;66.29;101918.47;4884357;28;20525;-69
2024/02/01 01:03:45;;;;;;;5.00;2.30;;;;;;;3.08;68.91;101914.53;4879698;28;20097;-70
2024/02/01 01:06:10;;;;;;;6.95;3.90;;;;;;;4.09;66.44;101928.06;4879775;28;20419;-70
2024/02/01 01:08:36;;;;;;;13.45;3.15;;;;;;;3.84;66.78;101931.41;4881177;28;20331;-69
2024/02/01 01:11:03;;;;;;;10.27;3.85;;;;;;;3.66;67.74;101934.75;4923815;28;20032;-69
2024/02/01 01:13:29;;;;;;;11.30;3.28;;;;;;;4.04;67.03;101934.09;4912184;28;20540;-70
2024/02/01 01:15:59;;;;;;;10.27;2.20;;;;;;;4.00;66.19;101941.81;4918136;28;20043;-70
2024/02/01 01:18:27;;;;;;;14.68;3.38;;;;;;;4.19;65.89;101935.00;4913848;28;20426;-70
2024/02/01 01:20:59;;;;;;;16.05;2.17;;;;;;;4.06;66.37;101937.56;4927555;28;20035;-69
2024/02/01 01:23:27;;;;;;;18.65;2.38;;;;;;;4.35;65.42;101937.66;4923187;28;20051;-70
2024/02/01 01:25:55;;;;;;;20.05;3.20;;;;;;;4.09;66.23;101941.00;4920706;28;20047;-70
2024/02/01 01:28:21;;;;;;;19.27;3.75;;;;;;;4.07;65.80;101936.69;4914405;28;20122;-70
2024/02/01 01:30:48;;;;;;;19.42;2.30;;;;;;;4.13;65.81;101937.56;4921631;28;20412;-70
2024/02/01 01:33:14;;;;;;;20.77;2.25;;;;;;;4.45;64.94;101943.72;4923111;28;20126;-70
2024/02/01 01:35:44;;;;;;;16.75;2.60;;;;;;;4.54;64.34;101946.31;4919292;28;20113;-70
2024/02/01 01:38:12;;;;;;;21.75;3.13;;;;;;;4.31;64.58;101952.31;4936655;28;20085;-70
2024/02/01 01:40:40;;;;;;;28.67;3.08;;;;;;;4.21;65.34;101956.59;4926211;28;20545;-68
2024/02/01 01:43:05;;;;;;;17.50;3.92;;;;;;;4.25;64.85;101957.44;4930798;28;20118;-70
2024/02/01 01:45:33;;;;;;;32.15;3.70;;;;;;;4.05;65.17;101969.44;4915849;28;20039;-67
2024/02/01 01:48:01;;;;;;;22.45;2.97;;;;;;;4.42;64.23;101966.16;4919767;28;20143;-67
2024/02/01 01:50:27;;;;;;;23.00;3.38;;;;;;;4.50;63.83;101970.47;4917409;28;20043;-68
2024/02/01 01:52:55;;;;;;;28.42;4.63;;;;;;;4.32;63.74;101967.00;4935657;28;20058;-68
2024/02/01 01:55:31;;;;;;;30.58;3.17;;;;;;;4.29;63.77;101973.88;4892397;28;20061;-68
2024/02/01 01:57:57;;;;;;;24.25;4.32;;;;;;;4.14;63.92;101980.72;4917695;28;20039;-71
2024/02/01 02:00:26;;;;;;;33.97;2.92;;;;;;;3.71;64.71;101982.19;4931741;28;20180;-67
2024/02/01 02:02:52;;;;;;;18.80;2.78;;;;;;;4.26;63.49;101984.22;4937617;28;20509;-68
2024/02/01 02:05:20;;;;;;;29.27;4.93;;;;;;;4.07;63.90;101984.13;4924109;28;20523;-67
2024/02/01 02:07:48;;;;;;;24.65;3.63;;;;;;;3.94;63.41;101990.97;4916589;28;20035;-68
2024/02/01 02:10:16;;;;;;;35.50;3.65;;;;;;;4.02;62.98;102002.19;4934611;28;20054;-66
2024/02/01 02:12:43;;;;;;;22.38;2.67;;;;;;;4.08;62.61;101995.34;4930780;28;20027;-69
2024/02/01 02:15:09;;;;;;;25.88;3.10;;;;;;;3.70;63.76;102008.91;4883107;28;20721;-73
2024/02/01 02:17:38;;;;;;;31.42;3.58;;;;;;;3.75;63.17;102008.06;4884076;28;20169;-72
2024/02/01 02:20:19;;;;;;;35.45;3.47;;;;;;;3.50;64.16;102012.22;4883259;28;20058;-68
2024/02/01 02:22:51;;;;;;;20.95;2.05;;;;;;;3.60;63.21;102013.13;4871390;28;21811;-69
2024/02/01 02:25:20;;;;;;;24.02;3.42;;;;;;;3.52;63.00;102010.50;4876777;28;20562;-67
2024/02/01 02:27:51;;;;;;;13.32;2.47;;;;;;;3.50;62.83;102012.22;4901935;28;20044;-68
2024/02/01 02:30:16;;;;;;;17.23;2.10;;;;;;;3.35;63.09;102025.88;4924509;28;20047;-68
2024/02/01 02:32:48;;;;;;;17.83;3.30;;;;;;;3.29;63.12;102027.53;4925790;28;20121;-68
2024/02/01 02:35:13;;;;;;;19.92;3.95;;;;;;;3.07;63.79;102042.81;4913246;28;20054;-67
2024/02/01 02:37:50;;;;;;;25.23;2.33;;;;;;;3.34;62.76;102046.56;4914980;28;20039;-67
2024/02/01 02:40:17;;;;;;;27.35;2.95;;;;;;;3.22;62.84;102039.50;4933215;28;20083;-68
2024/02/01 02:42:45;;;;;;;24.83;2.25;;;;;;;3.05;63.06;102049.69;4914846;28;20035;-68
2024/02/01 02:45:11;;;;;;;30.17;3.17;;;;;;;2.99;63.25;102049.63;4920242;28;20595;-67
2024/02/01 02:47:46;;;;;;;12.80;2.88;;;;;;;3.07;62.82;102058.31;4913546;28;20307;-67
2024/02/01 02:50:14;;;;;;;16.33;3.60;;;;;;;3.02;62.57;102069.44;4923683;28;20039;-67
2024/02/01 02:52:43;;;;;;;32.10;3.78;;;;;;;3.01;62.68;102068.56;4930291;28;20121;-68
2024/02/01 02:55:12;;;;;;;19.00;1.75;;;;;;;3.16;62.40;102073.91;4921598;28;20061;-66
2024/02/01 02:57:37;;;;;;;24.08;2.70;;;;;;;3.17;62.14;102075.63;4920273;28;20490;-68
2024/02/01 03:00:09;;;;;;;26.25;1.98;;;;;;;3.18;61.88;102067.03;4909686;28;20058;-67
2024/02/01 03:02:36;;;;;;;16.10;2.00;;;;;;;2.87;62.30;102065.00;4910701;28;20115;-67
2024/02/01 03:05:06;;;;;;;31.58;2.13;;;;;;;3.10;62.00;102070.41;4925395;28;20059;-67
2024/02/01 03:07:35;;;;;;;18.65;3.20;;;;;;;2.86;62.52;102068.41;4914988;28;21077;-67
2024/02/01 03:10:04;;;;;;;16.25;2.05;;;;;;;3.01;61.96;102081.50;4918854;28;20578;-67
2024/02/01 03:12:35;;;;;;;31.00;2.67;;;;;;;3.07;61.74;102083.25;4916797;28;20656;-66
2024/02/01 03:15:03;;;;;;;25.05;2.30;;;;;;;2.61;62.84;102082.75;4919151;28;20143;-68
2024/02/01 03:17:29;;;;;;;16.13;1.85;;;;;;;2.86;62.36;102081.31;4926044;28;20134;-67
2024/02/01 03:19:54;;;;;;;17.60;2.50;;;;;;;2.87;61.90;102075.31;4923033;28;21273;-67
2024/02/01 03:22:24;;;;;;;33.97;2.55;;;;;;;2.86;61.85;102078.72;4899672;28;20114;-67
2024/02/01 03:24:58;;;;;;;16.38;2.42;;;;;;;2.87;61.93;102086.50;4886497;28;20575;-67
2024/02/01 03:27:27;;;;;;;16.42;2.97;;;;;;;2.90;61.92;102096.00;4887041;28;20035;-68
2024/02/01 03:29:58;;;;;;;16.70;2.05;;;;;;;2.76;62.01;102099.28;4911681;28;20221;-67
2024/02/01 03:32:32;;;;;;;27.17;2.65;;;;;;;2.88;61.65;102095.13;4883831;28;20173;-67
2024/02/01 03:35:03;;;;;;;14.73;2.63;;;;;;;2.76;62.16;102106.19;4930025;28;20484;-68
2024/02/01 03:37:29;;;;;;;34.22;2.33;;;;;;;2.72;62.22;102109.56;4917246;28;20038;-68
2024/02/01 03:39:57;;;;;;;19.40;1.92;;;;;;;2.76;62.05;102111.34;4914140;28;20983;-66
2024/02/01 03:42:25;;;;;;;24.25;2.17;;;;;;;2.53;62.35;102117.06;4947806;28;20050;-67
2024/02/01 03:44:56;;;;;;;35.95;3.17;;;;;;;2.73;62.00;102122.50;4927170;28;20434;-67
2024/02/01 03:47:21;;;;;;;20.77;1.90;;;;;;;2.62;62.05;102121.47;4933789;28;20043;-68
2024/02/01 03:49:47;;;;;;;21.80;2.83;;;;;;;2.66;61.87;102127.53;4906830;28;20049;-66
2024/02/01 03:52:20;;;;;;;25.00;2.70;;;;;;;2.57;61.71;102133.44;4917715;28;20035;-67
2024/02/01 03:54:46;;;;;;;25.30;2.08;;;;;;;2.70;61.79;102140.50;4918625;28;20063;-67
2024/02/01 03:57:15;;;;;;;21.52;1.90;;;;;;;2.57;61.50;102146.34;4935940;28;20033;-67
2024/02/01 03:59:42;;;;;;;21.35;2.28;;;;;;;2.23;62.86;102148.44;4907129;28;20047;-67
2024/02/01 04:02:14;;;;;;;28.55;2.85;;;;;;;2.31;62.54;102151.13;4918295;28;20562;-66
2024/02/01 04:04:48;;;;;;;13.25;1.80;;;;;;;2.64;61.87;102155.91;4911662;28;20038;-66
2024/02/01 04:07:18;;;;;;;21.15;1.50;;;;;;;2.61;61.61;102160.19;4920163;28;20119;-67
2024/02/01 04:09:44;;;;;;;28.80;2.67;;;;;;;2.46;61.90;102160.81;4896165;28;20043;-66
2024/02/01 04:12:12;;;;;;;15.98;1.98;;;;;;;2.51;61.37;102164.31;4920767;28;20563;-65
2024/02/01 04:14:38;;;;;;;24.02;2.25;;;;;;;2.33;61.95;102162.34;4917568;28;20642;-66
2024/02/01 04:17:04;;;;;;;21.20;1.52;;;;;;;2.53;60.89;102178.13;4914667;28;20042;-66
2024/02/01 04:19:29;;;;;;;18.45;2.90;;;;;;;2.57;61.02;102185.06;4926704;28;20042;-67
2024/02/01 04:21:59;;;;;;;20.45;3.08;;;;;;;2.23;61.36;102194.88;4913947;28;20064;-66
2024/02/01 04:24:27;;;;;;;19.27;1.73;;;;;;;2.23;62.01;102188.88;4917454;28;20037;-66
2024/02/01 04:26:55;;;;;;;23.83;2.53;;;;;;;2.44;61.13;102198.63;4931008;28;20085;-66
2024/02/01 04:29:23;;;;;;;26.55;2.35;;;;;;;2.25;61.11;102202.66;4919263;28;20578;-66
2024/02/01 04:31:49;;;;;;;26.73;1.95;;;;;;;2.31;60.66;102207.91;4914417;28;20036;-66
2024/02/01 04:34:20;;;;;;;17.45;1.42;;;;;;;2.23;60.74;102214.66;4932067;28;20035;-66
2024/02/01 04:36:49;;;;;;;29.05;1.95;;;;;;;2.19;61.55;102213.72;4912432;28;20068;-65
2024/02/01 04:39:14;;;;;;;10.93;1.60;;;;;;;2.06;60.94;102219.53;4918101;28;20039;-66
2024/02/01 04:41:42;;;;;;;18.70;2.40;;;;;;;2.15;60.68;102222.25;4918412;28;20047;-65
2024/02/01 04:44:10;;;;;;;18.40;1.75;;;;;;;2.09;60.47;102222.19;4915025;28;20033;-66
2024/02/01 04:46:38;;;;;;;16.83;2.00;;;;;;;2.06;60.83;102224.69;4915935;28;20062;-65
2024/02/01 04:49:11;;;;;;;18.65;1.73;;;;;;;2.01;60.56;102231.50;4903105;28;20031;-67
2024/02/01 04:51:40;;;;;;;16.25;2.42;;;;;;;2.12;60.27;102237.69;4904473;28;20031;-65
2024/02/01 04:54:09;;;;;;;11.35;1.27;;;;;;;2.22;59.77;102231.88;4912225;28;20047;-65
2024/02/01 04:56:38;;;;;;;13.13;1.77;;;;;;;2.15;59.81;102242.91;4910993;28;20727;-66
2024/02/01 04:59:04;;;;;;;15.50;1.45;;;;;;;1.85;60.49;102244.09;4905373;28;21900;-66
2024/02/01 05:01:31;;;;;;;14.20;1.13;;;;;;;1.87;60.67;102245.00;4893404;28;20103;-66
2024/02/01 05:03:58;;;;;;;14.75;1.30;;;;;;;1.96;59.92;102256.34;4884417;28;20027;-65
2024/02/01 05:06:25;;;;;;;20.45;1.70;;;;;;;1.96;60.39;102259.78;4895389;28;20075;-65
2024/02/01 05:08:56;;;;;;;20.35;2.45;;;;;;;1.88;60.54;102249.31;4891355;28;20308;-66
2024/02/01 05:11:24;;;;;;;20.58;1.88;;;;;;;2.06;59.92;102261.66;4863253;28;20042;-66
2024/02/01 05:13:52;;;;;;;18.33;1.63;;;;;;;1.84;60.54;102268.16;4898213;28;20035;-66
2024/02/01 05:16:21;;;;;;;13.13;1.10;;;;;;;1.96;59.85;102267.50;4905364;28;20591;-64
2024/02/01 05:18:48;;;;;;;16.67;2.35;;;;;;;1.95;59.70;102263.19;4904356;28;20502;-64
2024/02/01 05:21:16;;;;;;;9.35;0.90;;;;;;;1.65;61.14;102266.06;4921635;28;20035;-66
2024/02/01 05:23:49;;;;;;;17.20;2.58;;;;;;;1.72;61.20;102267.91;4922951;28;20043;-66
2024/02/01 05:26:18;;;;;;;20.80;2.25;;;;;;;1.81;60.48;102274.97;4936125;28;20054;-65
2024/02/01 05:28:45;;;;;;;31.30;2.60;;;;;;;1.74;61.05;102271.38;4918920;28;20082;-66
2024/02/01 05:31:11;;;;;;;24.10;2.30;;;;;;;1.57;61.69;102267.59;4922507;28;20042;-65
2024/02/01 05:33:39;;;;;;;21.83;2.28;;;;;;;2.05;59.70;102271.97;4920801;28;20035;-67
2024/02/01 05:36:08;;;;;;;24.50;2.47;;;;;;;1.79;60.74;102282.66;4908979;28;20249;-68
2024/02/01 05:38:39;;;;;;;12.35;1.35;;;;;;;1.87;60.36;102291.41;4915263;28;20047;-65
2024/02/01 05:41:11;;;;;;;28.90;2.57;;;;;;;1.98;59.83;102289.03;4914843;28;20055;-66
2024/02/01 05:43:42;;;;;;;22.88;2.30;;;;;;;2.02;59.47;102297.69;4920144;28;20035;-65
2024/02/01 05:46:14;;;;;;;22.17;2.92;;;;;;;1.63;61.23;102298.66;4915468;28;20151;-65
2024/02/01 05:48:41;;;;;;;;;;;;;;;1.94;59.91;102293.25;4922175;28;20047;-66
2024/02/01 05:51:09;;;;;;;14.15;1.88;;;;;;;1.78;60.19;102298.97;4934204;28;19918;-68
2024/02/01 05:53:35;;;;;;;28.85;3.45;;;;;;;1.74;60.53;102299.75;4922615;28;20079;-66
2024/02/01 05:56:00;;;;;;;28.42;2.70;;;;;;;1.61;60.33;102301.22;4923088;28;20071;-65
2024/02/01 05:58:31;;;;;;;26.92;1.42;;;;;;;1.63;60.39;102303.81;4922874;28;20032;-65
2024/02/01 06:00:59;;;;;;;29.95;2.17;;;;;;;1.88;59.77;102313.75;4904832;28;20182;-65
2024/02/01 06:03:28;;;;;;;21.48;1.85;;;;;;;1.79;60.26;102318.75;4920260;28;20040;-65
2024/02/01 06:05:56;;;;;;;20.67;2.38;;;;;;;1.57;59.99;102325.16;4930485;28;20524;-67
2024/02/01 06:08:21;;;;;;;18.05;3.00;;;;;;;1.71;59.47;102328.91;4927990;28;20090;-67
2024/02/01 06:10:46;;;;;;;16.73;2.42;;;;;;;1.37;60.48;102332.44;4934560;28;20042;-67
2024/02/01 06:13:12;;;;;;;19.00;3.33;;;;;;;1.84;58.77;102340.34;4924735;28;21201;-67
2024/02/01 06:15:40;;;;;;;21.65;2.78;;;;;;;1.86;58.99;102343.84;4922088;28;20554;-67
2024/02/01 06:18:06;;;;;;;24.75;3.50;;;;;;;1.86;58.79;102349.00;4914529;28;20035;-68
2024/02/01 06:20:34;;;;;;;22.42;2.85;;;;;;;1.57;59.91;102350.94;4913397;28;20051;-67
2024/02/01 06:23:02;;;;;;;23.08;3.33;;;;;;;1.21;59.78;102350.97;4917801;28;20036;-67
2024/02/01 06:25:30;;;;;;;17.95;1.92;;;;;;;2.02;58.26;102359.56;4882184;28;20264;-67
2024/02/01 06:28:00;;;;;;;22.00;3.45;;;;;;;1.90;58.08;102366.25;4875092;28;20247;-66
2024/02/01 06:30:26;;;;;;;37.58;5.22;;;;;;;1.57;59.27;102362.97;4896995;28;20087;-68
2024/02/01 06:32:52;;;;;;;20.20;2.22;;;;;;;1.48;59.73;102364.53;4885626;28;20063;-66
2024/02/01 06:35:17;;;;;;;14.70;1.85;;;;;;;1.65;58.91;102356.28;4876044;28;22206;-67
2024/02/01 06:37:46;;;;;;;29.45;1.95;;;;;;;1.28;60.11;102358.00;4885592;28;20205;-66
2024/02/01 06:40:13;;;;;;;20.17;1.38;;;;;;;1.75;58.48;102363.34;4909721;28;20407;-67
2024/02/01 06:45:28;;;;;;;27.40;1.85;;;;;;;1.38;59.91;102369.41;4927505;28;20092;-65
2024/02/01 06:48:10;;;;;;;21.48;2.33;;;;;;;1.39;59.68;102359.13;4931507;28;20027;-67
2024/02/01 06:50:57;;;;;;;20.52;1.98;;;;;;;1.68;58.89;102358.91;4925086;28;20934;-65
2024/02/01 06:53:33;;;;;;;22.77;2.47;;;;;;;1.62;58.78;102364.81;4920169;28;20036;-66
2024/02/01 06:56:51;;;;;;;24.38;3.00;;;;;;;1.65;59.20;102369.16;4914760;28;20044;-67
2024/02/01 06:59:11;;;;;;;23.17;2.80;;;;;;;1.42;59.92;102366.09;4924258;28;20035;-66
2024/02/01 07:02:06;;;;;;;20.65;3.08;;;;;;;1.60;59.23;102369.06;4910159;28;20047;-65
2024/02/01 07:04:41;;;;;;;20.23;2.83;;;;;;;1.59;59.22;102374.19;4951311;28;20043;-66
2024/02/01 07:10:14;;;;;;;21.23;2.47;;;;;;;1.27;60.62;102376.88;4918011;28;20396;-66
2024/02/01 07:12:42;;;;;;;12.75;1.85;;;;;;;1.57;59.48;102373.28;4914928;28;20098;-67
2024/02/01 07:17:58;;;;;;;20.23;2.70;;;;;;;1.54;59.21;102386.09;4919229;28;20870;-67
2024/02/01 07:20:46;;;;;;;21.10;3.15;;;;;;;1.41;59.48;102390.97;4913186;28;20464;-66
2024/02/01 07:25:49;;;;;;;34.92;2.45;;;;;;;1.20;59.79;102404.22;4917441;28;20048;-67
2024/02/01 07:58:52;;;;;;;25.48;2.13;;;;;;;2.17;58.57;102459.63;4895196;28;20031;-65
2024/02/01 08:01:20;;;;;;;21.63;2.70;;;;;;;2.26;57.48;102450.34;4906617;28;20130;-66
2024/02/01 08:09:16;;;;;;;14.82;1.92;;;;;;;2.66;57.12;102464.00;4913206;28;20027;-65
2024/02/01 08:11:44;;;;;;;40.78;2.95;;;;;;;3.08;55.71;102463.03;4932183;28;20063;-66
2024/02/01 08:14:11;;;;;;;19.90;2.50;;;;;;;3.22;55.69;102467.56;4927025;28;20664;-65
2024/02/01 08:16:39;;;;;;;24.50;2.95;;;;;;;3.21;55.78;102471.00;4930788;28;20568;-65
2024/02/01 08:19:11;;;;;;;22.08;2.45;;;;;;;3.71;54.95;102476.09;4933363;28;20952;-66
2024/02/01 08:21:42;;;;;;;17.00;2.50;;;;;;;3.96;54.40;102485.97;4929786;28;20094;-65
2024/02/01 08:24:13;;;;;;;11.30;1.27;;;;;;;4.90;52.12;102491.34;4931232;28;20507;-65
2024/02/01 08:26:42;;;;;;;15.10;2.42;;;;;;;4.80;51.67;102486.06;4914687;28;20110;-66
2024/02/01 08:29:14;;;;;;;16.73;3.53;;;;;;;5.49;50.85;102498.78;4931833;28;20057;-65
2024/02/01 08:31:40;;;;;;;26.42;3.33;;;;;;;5.49;50.86;102495.31;4937036;28;20063;-65
2024/02/01 08:34:14;;;;;;;13.80;2.53;;;;;;;6.02;48.24;102490.47;4916388;28;20128;-65
2024/02/01 08:36:41;;;;;;;16.85;3.35;;;;;;;5.53;50.01;102492.75;4916451;28;20099;-66
2024/02/01 08:39:10;;;;;;;30.10;4.63;;;;;;;5.54;49.37;102480.66;4917539;28;20518;-67
2024/02/01 08:41:48;;;;;;;28.10;3.70;;;;;;;5.94;49.23;102486.94;4918981;28;20033;-67
2024/02/01 08:44:16;;;;;;;18.67;2.88;;;;;;;5.75;48.75;102490.28;4910215;28;20067;-66
2024/02/01 08:46:44;;;;;;;24.15;2.58;;;;;;;5.69;49.58;102488.53;4951342;28;20050;-66
2024/02/01 08:49:12;;;;;;;26.65;3.20;;;;;;;6.41;48.63;102498.44;4949633;28;20043;-66
2024/02/01 08:51:43;;;;;;;30.92;2.47;;;;;;;6.87;47.74;102509.81;4950147;28;20200;-66
2024/02/01 08:54:11;;;;;;;15.80;3.13;;;;;;;6.92;47.65;102509.81;4942155;28;20587;-67
2024/02/01 08:56:42;;;;;;;27.08;2.72;;;;;;;6.70;46.67;102521.91;4919412;28;20134;-65
2024/02/01 08:59:07;;;;;;;20.90;3.05;;;;;;;6.39;48.30;102520.94;4934634;28;20042;-66
2024/02/01 09:01:37;;;;;;;18.77;2.83;;;;;;;6.31;47.48;102526.13;4912529;28;20044;-66
2024/02/01 09:04:13;;;;;;;23.33;2.70;;;;;;;6.09;47.52;102525.97;4916812;28;20705;-66
2024/02/01 09:06:39;;;;;;;19.42;2.25;;;;;;;5.82;48.34;102531.00;4917928;28;20061;-65
2024/02/01 09:09:28;;;;;;;30.02;3.22;;;;;;;6.14;47.91;102530.31;4919389;28;20609;-67
2024/02/01 09:11:54;;;;;;;19.42;3.13;;;;;;;5.81;48.43;102537.03;4917033;28;20150;-66
2024/02/01 09:14:19;;;;;;;13.05;1.85;;;;;;;6.20;47.72;102541.59;4903513;28;20047;-66
2024/02/01 09:16:52;;;;;;;22.73;2.83;;;;;;;6.18;47.86;102553.69;4918278;28;20042;-66
2024/02/01 09:19:17;;;;;;;16.55;3.03;;;;;;;6.47;48.85;102553.00;4904673;28;20094;-67
2024/02/01 09:21:43;;;;;;;20.52;3.08;;;;;;;6.16;48.20;102549.38;4915849;28;20043;-65
2024/02/01 09:24:10;;;;;;;24.48;2.92;;;;;;;5.87;47.94;102558.72;4917780;28;20027;-66
2024/02/01 09:26:36;;;;;;;19.75;3.72;;;;;;;6.30;47.71;102573.69;4926116;28;20062;-66
2024/02/01 09:29:15;;;;;;;24.25;2.92;;;;;;;6.53;47.70;102563.44;4921698;28;20114;-67
2024/02/01 09:31:40;;;;;;;15.55;1.73;;;;;;;6.42;46.95;102571.19;4935886;28;20031;-65
2024/02/01 09:34:16;;;;;;;21.08;2.22;;;;;;;6.48;47.88;102566.00;4939239;28;20047;-65
2024/02/01 09:36:41;;;;;;;30.05;4.55;;;;;;;6.16;47.39;102568.41;4919241;28;20713;-67
2024/02/01 09:39:07;;;;;;;24.73;2.50;;;;;;;6.33;47.28;102571.13;4939198;28;20591;-66
2024/02/01 09:41:36;;;;;;;23.60;3.58;;;;;;;6.24;48.19;102571.91;4918968;28;20043;-65
2024/02/01 09:44:06;;;;;;;27.80;4.20;;;;;;;6.00;48.68;102588.22;4920232;28;20118;-67
2024/02/01 09:46:35;;;;;;;29.02;3.63;;;;;;;6.06;48.48;102580.47;4914138;28;20090;-67
2024/02/01 09:49:02;;;;;;;16.65;2.22;;;;;;;6.61;47.67;102581.63;4921629;28;20118;-67
2024/02/01 09:51:33;;;;;;;35.78;4.10;;;;;;;6.38;47.21;102587.59;4911333;28;20689;-67
2024/02/01 09:54:04;;;;;;;18.92;2.50;;;;;;;6.89;47.81;102596.47;4919571;28;20041;-66
2024/02/01 09:56:42;;;;;;;20.05;3.90;;;;;;;6.87;45.99;102598.19;4913270;28;21647;-66
2024/02/01 09:59:14;;;;;;;26.75;2.85;;;;;;;6.90;47.30;102611.19;4920124;28;20032;-66
2024/02/01 10:01:40;;;;;;;21.30;2.85;;;;;;;6.68;46.00;102607.63;4918507;28;20566;-67
2024/02/01 10:04:12;;;;;;;16.95;2.05;;;;;;;6.64;46.49;102616.31;4925740;28;20031;-66
2024/02/01 10:06:37;;;;;;;18.65;1.88;;;;;;;6.14;47.88;102613.41;4919084;28;20059;-66
2024/02/01 10:09:25;;;;;;;26.30;2.90;;;;;;;5.90;48.24;102606.31;4923551;28;20035;-66
2024/02/01 10:11:54;;;;;;;24.33;3.53;;;;;;;6.48;47.58;102614.47;4936024;28;20054;-67
2024/02/01 10:14:38;;;;;;;13.02;2.10;;;;;;;7.14;46.23;102616.47;4927439;28;20039;-65
2024/02/01 10:17:09;;;;;;;18.67;2.70;;;;;;;7.37;46.12;102629.50;4948409;28;20082;-66
2024/02/01 10:19:49;;;;;;;23.10;2.78;;;;;;;7.52;46.11;102625.19;4928069;28;20058;-66
2024/02/01 10:22:15;;;;;;;17.08;2.63;;;;;;;7.46;46.10;102629.50;4930432;28;20043;-66
2024/02/01 10:24:49;;;;;;;26.20;4.32;;;;;;;7.09;46.51;102632.06;4927623;28;20132;-67
2024/02/01 10:27:22;;;;;;;16.45;2.47;;;;;;;6.68;46.64;102631.03;4947702;28;20039;-66
2024/02/01 10:29:48;;;;;;;18.77;2.75;;;;;;;6.72;46.86;102639.72;4927992;28;20047;-66
2024/02/01 10:32:16;;;;;;;18.42;2.50;;;;;;;6.84;46.43;102634.56;4933051;28;20057;-66
2024/02/01 10:35:02;;;;;;;15.18;1.98;;;;;;;6.74;46.83;102645.78;4928277;28;20050;-67
2024/02/01 10:37:31;;;;;;;19.38;2.58;;;;;;;6.89;46.68;102643.25;4928347;28;20045;-66
2024/02/01 10:40:06;;;;;;;18.00;2.00;;;;;;;7.69;46.07;102659.06;4918425;28;20199;-67
2024/02/01 10:42:33;;;;;;;31.90;3.10;;;;;;;7.40;45.42;102650.31;4908144;28;20039;-67
2024/02/01 10:45:05;;;;;;;12.48;2.70;;;;;;;7.21;45.08;102655.47;4927733;28;20063;-68
2024/02/01 10:47:45;;;;;;;22.75;3.70;;;;;;;6.97;45.96;102656.25;4909706;28;20062;-66
2024/02/01 10:50:13;;;;;;;14.70;1.73;;;;;;;6.47;46.86;102668.16;4913383;28;20044;-66
2024/02/01 10:52:38;;;;;;;15.95;3.40;;;;;;;7.06;46.19;102663.22;4905128;28;20842;-67
2024/02/01 10:55:09;;;;;;;17.08;2.00;;;;;;;7.43;45.29;102666.81;4912091;28;20242;-67
2024/02/01 10:57:42;;;;;;;20.23;2.10;;;;;;;6.41;46.45;102660.31;4909771;28;20043;-66
2024/02/01 11:00:19;;;;;;;18.33;2.42;;;;;;;7.09;46.55;102661.53;4917079;28;20079;-68
2024/02/01 11:02:52;;;;;;;22.10;3.03;;;;;;;6.87;46.50;102663.16;4913393;28;20062;-67
2024/02/01 11:05:17;;;;;;;15.20;2.10;;;;;;;6.79;45.41;102664.00;4917464;28;20098;-67
2024/02/01 11:07:48;;;;;;;13.98;2.83;;;;;;;6.47;45.42;102668.16;4913141;28;20795;-65
2024/02/01 11:10:14;;;;;;;28.35;3.22;;;;;;;6.75;46.55;102670.91;4918617;28;20059;-68
2024/02/01 11:12:40;;;;;;;16.33;2.22;;;;;;;6.49;47.10;102663.84;4926005;28;20130;-65
2024/02/01 11:15:23;;;;;;;18.45;2.67;;;;;;;6.79;46.52;102669.19;4923202;28;20042;-67
2024/02/01 11:17:51;;;;;;;21.33;2.75;;;;;;;6.76;46.24;102688.25;4910815;28;20659;-66
2024/02/01 11:20:25;;;;;;;21.35;2.08;;;;;;;6.90;45.46;102670.97;4909690;28;20059;-65
2024/02/01 11:22:59;;;;;;;11.93;1.92;;;;;;;6.76;46.74;102690.84;4916980;28;20031;-67
2024/02/01 11:25:28;;;;;;;22.27;1.70;;;;;;;6.48;45.39;102688.09;4918493;28;20242;-66
2024/02/01 11:27:58;;;;;;;11.43;2.30;;;;;;;7.10;45.41;102693.59;4914711;28;20491;-66
2024/02/01 11:30:26;;;;;;;16.63;1.98;;;;;;;7.68;44.54;102682.47;4901199;28;20067;-66
2024/02/01 11:32:56;;;;;;;22.27;3.20;;;;;;;6.99;45.42;102690.09;4903048;28;20490;-67
2024/02/01 11:35:32;;;;;;;20.52;1.98;;;;;;;7.34;45.43;102700.59;4940415;28;20134;-68
2024/02/01 11:38:06;;;;;;;9.68;1.17;;;;;;;6.84;45.10;102689.16;4911488;28;20057;-67
2024/02/01 11:40:42;;;;;;;23.55;2.75;;;;;;;6.52;45.97;102688.97;4882842;28;20035;-67
2024/02/01 11:43:09;;;;;;;17.42;2.25;;;;;;;6.65;45.14;102689.91;4901754;28;20227;-66
2024/02/01 11:45:36;;;;;;;11.88;2.35;;;;;;;6.15;46.14;102695.59;4898404;28;20070;-67
2024/02/01 11:48:03;;;;;;;14.13;1.48;;;;;;;6.11;46.37;102696.47;4891987;28;20782;-66
2024/02/01 11:50:31;;;;;;;12.00;1.33;;;;;;;6.86;44.91;102690.03;4886633;28;20047;-66
2024/02/01 11:53:08;;;;;;;16.95;2.13;;;;;;;7.35;44.51;102683.25;4941489;28;20051;-67
2024/02/01 11:55:34;;;;;;;16.20;1.70;;;;;;;6.69;45.85;102697.75;4910445;28;20823;-67
2024/02/01 11:58:11;;;;;;;15.65;1.58;;;;;;;6.58;46.15;102701.16;4947485;28;20099;-66
2024/02/01 12:00:39;;;;;;;22.75;2.58;;;;;;;6.92;44.91;102696.97;4902123;28;20121;-66
2024/02/01 12:03:07;;;;;;;18.85;1.48;;;;;;;6.21;45.50;102703.44;4922626;28;20049;-65
2024/02/01 12:05:35;;;;;;;16.45;2.15;;;;;;;6.75;44.67;102715.09;4909279;28;20565;-66
2024/02/01 12:08:03;;;;;;;17.15;1.75;;;;;;;6.09;44.90;102699.91;4919496;28;20031;-67
2024/02/01 12:10:31;;;;;;;26.05;2.67;;;;;;;5.84;46.47;102706.63;4904885;28;20528;-66
2024/02/01 12:12:59;;;;;;;16.30;1.30;;;;;;;6.04;46.14;102717.19;4918719;28;20048;-66
2024/02/01 12:15:28;;;;;;;15.75;1.92;;;;;;;6.05;45.96;102708.50;4905739;28;20093;-66
2024/02/01 12:18:01;;;;;;;19.02;1.55;;;;;;;6.05;45.83;102707.66;4901696;28;20069;-66
2024/02/01 12:20:29;;;;;;;8.93;1.33;;;;;;;5.49;45.81;102719.22;4921978;28;20458;-65
2024/02/01 12:23:04;;;;;;;18.00;1.60;;;;;;;5.91;45.80;102715.31;4909323;28;20905;-67